createdAt,value
2017-10-23T00:00:58.623Z,10.01
2017-10-23T00:01:58.621Z,10.05
2017-10-23T00:02:58.618Z,10.04
2017-10-23T00:03:58.615Z,9.95
2017-10-23T00:04:58.611Z,10.01
2017-10-23T00:05:58.607Z,10.04
2017-10-23T00:06:58.605Z,9.98
2017-10-23T00:07:58.602Z,10.05
2017-10-23T00:08:58.598Z,10.04
2017-10-23T00:09:58.595Z,10.04
2017-10-23T00:10:58.593Z,10.01
2017-10-23T00:11:58.591Z,10.01
2017-10-23T00:12:58.587Z,10.01
2017-10-23T00:13:58.583Z,10.07
2017-10-23T00:14:58.582Z,10.07
2017-10-23T00:15:58.579Z,9.99
2017-10-23T00:16:58.575Z,9.97
2017-10-23T00:17:58.587Z,9.94
2017-10-23T00:18:58.569Z,9.98
2017-10-23T00:19:58.565Z,9.98
2017-10-23T00:20:58.562Z,9.99
2017-10-23T00:21:58.559Z,9.98
2017-10-23T00:22:58.556Z,9.89
2017-10-23T00:23:58.554Z,9.91
2017-10-23T00:24:58.550Z,9.87
2017-10-23T00:25:58.548Z,9.98
2017-10-23T00:26:58.545Z,10.01
2017-10-23T00:27:58.547Z,9.92
2017-10-23T00:28:58.538Z,9.92
2017-10-23T00:29:58.535Z,9.89
2017-10-23T00:30:58.531Z,9.89
2017-10-23T00:31:58.529Z,9.95
2017-10-23T00:32:58.526Z,9.91
2017-10-23T00:33:58.522Z,9.89
2017-10-23T00:34:58.519Z,9.89
2017-10-23T00:35:58.517Z,9.92
2017-10-23T00:36:58.516Z,9.92
2017-10-23T00:37:58.510Z,9.89
2017-10-23T00:38:58.507Z,9.89
2017-10-23T00:39:58.504Z,9.86
2017-10-23T00:40:58.505Z,9.89
2017-10-23T00:41:58.496Z,9.95
2017-10-23T00:42:58.493Z,9.86
2017-10-23T00:43:58.492Z,9.86
2017-10-23T00:44:58.488Z,9.86
2017-10-23T00:45:58.484Z,9.94
2017-10-23T00:46:58.480Z,9.86
2017-10-23T00:47:58.482Z,9.99
2017-10-23T00:48:58.476Z,9.86
2017-10-23T00:49:58.472Z,9.98
2017-10-23T00:50:58.469Z,9.86
2017-10-23T00:51:58.467Z,9.91
2017-10-23T00:52:58.468Z,9.89
2017-10-23T00:53:58.460Z,9.79
2017-10-23T00:54:58.458Z,9.91
2017-10-23T00:55:58.454Z,9.87
2017-10-23T00:56:58.456Z,9.86
2017-10-23T00:57:58.449Z,9.92
2017-10-23T00:58:58.445Z,9.86
2017-10-23T00:59:58.443Z,9.84
2017-10-23T01:00:58.439Z,9.91
2017-10-23T01:01:58.435Z,9.91
2017-10-23T01:02:58.433Z,9.87
2017-10-23T01:03:58.431Z,9.95
2017-10-23T01:04:58.426Z,9.91
2017-10-23T01:05:58.421Z,9.89
2017-10-23T01:06:58.420Z,9.87
2017-10-23T01:07:58.417Z,9.91
2017-10-23T01:08:58.413Z,9.91
2017-10-23T01:09:58.410Z,9.86
2017-10-23T01:10:58.408Z,9.91
2017-10-23T01:11:58.404Z,9.91
2017-10-23T01:12:58.402Z,9.92
2017-10-23T01:13:58.398Z,9.91
2017-10-23T01:14:58.394Z,9.87
2017-10-23T01:15:58.392Z,9.86
2017-10-23T01:16:58.389Z,9.95
2017-10-23T01:17:58.386Z,9.91
2017-10-23T01:18:58.382Z,9.91
2017-10-23T01:19:58.382Z,9.83
2017-10-23T01:20:58.376Z,9.89
2017-10-23T01:21:58.373Z,9.83
2017-10-23T01:22:58.371Z,9.86
2017-10-23T01:23:58.367Z,9.94
2017-10-23T01:24:58.364Z,9.84
2017-10-23T01:25:58.361Z,9.89
2017-10-23T01:26:58.357Z,9.82
2017-10-23T01:27:58.356Z,9.84
2017-10-23T01:28:58.350Z,9.83
2017-10-23T01:29:58.347Z,9.82
2017-10-23T01:30:58.346Z,9.82
2017-10-23T01:31:58.343Z,9.79
2017-10-23T01:32:58.338Z,9.80
2017-10-23T01:33:58.334Z,9.83
2017-10-23T01:34:58.333Z,9.80
2017-10-23T01:35:58.331Z,9.82
2017-10-23T01:36:58.327Z,9.95
2017-10-23T01:37:58.324Z,9.92
2017-10-23T01:38:58.319Z,9.86
2017-10-23T01:39:58.317Z,9.87
2017-10-23T01:40:58.313Z,9.91
2017-10-23T01:41:58.310Z,9.99
2017-10-23T01:42:58.308Z,9.98
2017-10-23T01:43:58.305Z,10.01
2017-10-23T01:44:58.301Z,9.95
2017-10-23T01:45:58.299Z,10.05
2017-10-23T01:46:58.295Z,9.95
2017-10-23T01:47:58.291Z,9.98
2017-10-23T01:48:58.289Z,9.97
2017-10-23T01:49:58.286Z,10.07
2017-10-23T01:50:58.284Z,10.07
2017-10-23T01:51:58.280Z,10.04
2017-10-23T01:52:58.281Z,10.05
2017-10-23T01:53:58.272Z,9.97
2017-10-23T01:54:58.275Z,10.09
2017-10-23T01:55:58.267Z,10.02
2017-10-23T01:56:58.264Z,10.04
2017-10-23T01:57:58.262Z,10.09
2017-10-23T01:58:58.260Z,10.01
2017-10-23T01:59:58.256Z,10.02
2017-10-23T02:00:58.253Z,10.07
2017-10-23T02:01:58.248Z,10.09
2017-10-23T02:02:58.247Z,10.09
2017-10-23T02:03:58.245Z,10.04
2017-10-23T02:04:58.241Z,10.05
2017-10-23T02:05:58.238Z,10.12
2017-10-23T02:06:58.235Z,10.09
2017-10-23T02:07:58.231Z,10.09
2017-10-23T02:08:58.231Z,10.15
2017-10-23T02:09:58.226Z,10.07
2017-10-23T02:10:58.222Z,10.07
2017-10-23T02:11:58.218Z,10.05
2017-10-23T02:12:58.215Z,10.12
2017-10-23T02:13:58.214Z,10.13
2017-10-23T02:14:58.211Z,10.10
2017-10-23T02:15:58.207Z,10.17
2017-10-23T02:16:58.205Z,10.20
2017-10-23T02:17:58.200Z,10.16
2017-10-23T02:18:58.199Z,10.04
2017-10-23T02:19:58.196Z,10.01
2017-10-23T02:20:58.192Z,10.07
2017-10-23T02:21:58.189Z,10.12
2017-10-23T02:22:58.186Z,10.12
2017-10-23T02:23:58.183Z,10.19
2017-10-23T02:24:58.180Z,10.01
2017-10-23T02:25:58.179Z,10.07
2017-10-23T02:26:58.176Z,10.09
2017-10-23T02:27:58.177Z,10.16
2017-10-23T02:28:58.168Z,10.05
2017-10-23T02:29:58.165Z,10.05
2017-10-23T02:30:58.164Z,10.09
2017-10-23T02:31:58.163Z,10.05
2017-10-23T02:32:58.158Z,10.15
2017-10-23T02:33:58.153Z,10.02
2017-10-23T02:34:58.151Z,9.99
2017-10-23T02:35:58.149Z,10.02
2017-10-23T02:36:58.146Z,10.17
2017-10-23T02:37:58.148Z,10.19
2017-10-23T02:38:58.139Z,10.04
2017-10-23T02:39:58.138Z,10.12
2017-10-23T02:40:58.133Z,10.09
2017-10-23T02:41:58.132Z,10.12
2017-10-23T02:42:58.127Z,10.15
2017-10-23T02:43:58.126Z,10.10
2017-10-23T02:44:58.124Z,10.15
2017-10-23T02:45:58.119Z,10.13
2017-10-23T02:46:58.116Z,10.07
2017-10-23T02:47:58.114Z,10.05
2017-10-23T02:48:58.111Z,10.13
2017-10-23T02:49:58.109Z,10.10
2017-10-23T02:50:58.104Z,10.12
2017-10-23T02:51:58.102Z,10.09
2017-10-23T02:52:58.099Z,10.07
2017-10-23T02:53:58.096Z,10.10
2017-10-23T02:54:58.094Z,10.20
2017-10-23T02:55:58.091Z,10.20
2017-10-23T02:56:58.087Z,10.13
2017-10-23T02:57:58.085Z,10.10
2017-10-23T02:58:58.085Z,10.10
2017-10-23T02:59:58.079Z,10.10
2017-10-23T03:00:58.083Z,10.20
2017-10-23T03:01:58.073Z,10.17
2017-10-23T03:02:58.069Z,10.07
2017-10-23T03:03:58.067Z,10.12
2017-10-23T03:04:58.063Z,10.16
2017-10-23T03:05:58.062Z,10.16
2017-10-23T03:06:58.057Z,10.10
2017-10-23T03:07:58.055Z,10.05
2017-10-23T03:08:58.051Z,10.09
2017-10-23T03:09:58.048Z,10.17
2017-10-23T03:10:58.047Z,10.10
2017-10-23T03:11:58.043Z,10.10
2017-10-23T03:12:58.044Z,10.19
2017-10-23T03:13:58.037Z,10.22
2017-10-23T03:14:58.034Z,10.23
2017-10-23T03:15:58.031Z,10.30
2017-10-23T03:16:58.032Z,10.22
2017-10-23T03:17:58.024Z,10.23
2017-10-23T03:18:58.023Z,10.23
2017-10-23T03:19:58.020Z,10.28
2017-10-23T03:20:58.017Z,10.23
2017-10-23T03:21:58.013Z,10.20
2017-10-23T03:22:58.015Z,10.16
2017-10-23T03:23:58.007Z,10.26
2017-10-23T03:24:58.003Z,10.09
2017-10-23T03:25:58.002Z,10.25
2017-10-23T03:26:57.999Z,10.10
2017-10-23T03:27:58.002Z,10.15
2017-10-23T03:28:57.993Z,10.09
2017-10-23T03:29:57.989Z,10.12
2017-10-23T03:30:57.988Z,10.16
2017-10-23T03:31:57.984Z,10.15
2017-10-23T03:32:57.980Z,10.10
2017-10-23T03:33:57.977Z,10.12
2017-10-23T03:34:57.973Z,10.07
2017-10-23T03:35:57.971Z,10.04
2017-10-23T03:36:57.967Z,10.19
2017-10-23T03:37:57.965Z,10.05
2017-10-23T03:38:57.964Z,10.15
2017-10-23T03:39:57.960Z,10.16
2017-10-23T03:40:57.956Z,10.16
2017-10-23T03:41:57.952Z,10.05
2017-10-23T03:42:57.950Z,10.12
2017-10-23T03:43:57.948Z,10.10
2017-10-23T03:44:57.944Z,10.23
2017-10-23T03:45:57.944Z,10.16
2017-10-23T03:46:57.938Z,10.12
2017-10-23T03:47:57.948Z,10.15
2017-10-23T03:48:57.932Z,10.12
2017-10-23T03:49:57.929Z,10.16
2017-10-23T03:50:57.927Z,10.12
2017-10-23T03:51:57.925Z,10.15
2017-10-23T03:52:57.922Z,10.15
2017-10-23T03:53:57.919Z,10.09
2017-10-23T03:54:57.914Z,10.13
2017-10-23T03:55:57.914Z,10.16
2017-10-23T03:56:57.909Z,10.15
2017-10-23T03:57:57.906Z,10.10
2017-10-23T03:58:57.904Z,10.04
2017-10-23T03:59:57.901Z,10.20
2017-10-23T04:00:57.900Z,10.22
2017-10-23T04:01:57.894Z,10.17
2017-10-23T04:02:57.893Z,10.19
2017-10-23T04:03:57.890Z,10.12
2017-10-23T04:04:57.885Z,10.12
2017-10-23T04:05:57.884Z,10.10
2017-10-23T04:06:57.880Z,10.10
2017-10-23T04:07:57.890Z,10.17
2017-10-23T04:08:57.874Z,10.12
2017-10-23T04:09:57.872Z,10.07
2017-10-23T04:10:57.870Z,10.20
2017-10-23T04:11:57.866Z,10.10
2017-10-23T04:12:57.864Z,10.20
2017-10-23T04:13:57.859Z,10.09
2017-10-23T04:14:57.858Z,10.10
2017-10-23T04:15:57.854Z,10.20
2017-10-23T04:16:57.856Z,10.09
2017-10-23T04:17:57.849Z,10.10
2017-10-23T04:18:57.846Z,10.16
2017-10-23T04:19:57.842Z,10.12
2017-10-23T04:20:57.839Z,10.19
2017-10-23T04:21:57.836Z,10.12
2017-10-23T04:22:57.833Z,10.10
2017-10-23T04:23:57.833Z,10.22
2017-10-23T04:24:57.827Z,10.17
2017-10-23T04:25:57.823Z,10.16
2017-10-23T04:26:57.823Z,10.30
2017-10-23T04:27:57.820Z,10.28
2017-10-23T04:28:57.816Z,10.20
2017-10-23T04:29:57.814Z,10.26
2017-10-23T04:30:57.810Z,10.31
2017-10-23T04:31:57.809Z,10.22
2017-10-23T04:32:57.806Z,10.25
2017-10-23T04:33:57.802Z,10.19
2017-10-23T04:34:57.806Z,10.25
2017-10-23T04:35:57.798Z,10.26
2017-10-23T04:36:57.793Z,10.28
2017-10-23T04:37:57.792Z,10.30
2017-10-23T04:38:57.789Z,10.31
2017-10-23T04:39:57.784Z,10.33
2017-10-23T04:40:57.803Z,10.23
2017-10-23T04:41:57.780Z,10.33
2017-10-23T04:42:57.776Z,10.23
2017-10-23T04:43:57.774Z,10.26
2017-10-23T04:44:57.770Z,10.31
2017-10-23T04:45:57.768Z,10.30
2017-10-23T04:46:57.765Z,10.37
2017-10-23T04:47:57.762Z,10.31
2017-10-23T04:48:57.758Z,10.35
2017-10-23T04:49:57.758Z,10.33
2017-10-23T04:50:57.755Z,10.31
2017-10-23T04:51:57.752Z,10.34
2017-10-23T04:52:57.749Z,10.33
2017-10-23T04:53:57.745Z,10.34
2017-10-23T04:54:57.745Z,10.40
2017-10-23T04:55:57.741Z,10.30
2017-10-23T04:56:57.736Z,10.38
2017-10-23T04:57:57.741Z,10.41
2017-10-23T04:58:57.737Z,10.33
2017-10-23T04:59:57.730Z,10.38
2017-10-23T05:00:57.725Z,10.33
2017-10-23T05:01:57.725Z,10.38
2017-10-23T05:02:57.725Z,10.37
2017-10-23T05:03:57.720Z,10.37
2017-10-23T05:04:57.715Z,10.37
2017-10-23T05:05:57.716Z,10.35
2017-10-23T05:06:57.713Z,10.31
2017-10-23T05:07:57.709Z,10.37
2017-10-23T05:08:57.704Z,10.38
2017-10-23T05:09:57.702Z,10.44
2017-10-23T05:10:57.700Z,10.44
2017-10-23T05:11:57.696Z,10.38
2017-10-23T05:12:57.693Z,10.38
2017-10-23T05:13:57.691Z,10.51
2017-10-23T05:14:57.688Z,10.38
2017-10-23T05:15:57.687Z,10.40
2017-10-23T05:16:57.683Z,10.42
2017-10-23T05:17:57.680Z,10.37
2017-10-23T05:18:57.677Z,10.41
2017-10-23T05:19:57.675Z,10.49
2017-10-23T05:20:57.674Z,10.42
2017-10-23T05:21:57.668Z,10.44
2017-10-23T05:22:57.666Z,10.53
2017-10-23T05:23:57.663Z,10.48
2017-10-23T05:24:57.661Z,10.54
2017-10-23T05:25:57.666Z,10.51
2017-10-23T05:26:57.656Z,10.54
2017-10-23T05:27:57.654Z,10.42
2017-10-23T05:28:57.648Z,10.49
2017-10-23T05:29:57.647Z,10.44
2017-10-23T05:30:57.644Z,10.41
2017-10-23T05:31:57.643Z,10.49
2017-10-23T05:32:57.640Z,10.51
2017-10-23T05:33:57.641Z,10.42
2017-10-23T05:34:57.635Z,10.51
2017-10-23T05:35:57.633Z,10.46
2017-10-23T05:36:57.628Z,10.42
2017-10-23T05:37:57.625Z,10.48
2017-10-23T05:38:57.625Z,10.46
2017-10-23T05:39:57.620Z,10.38
2017-10-23T05:40:57.617Z,10.41
2017-10-23T05:41:57.616Z,10.41
2017-10-23T05:42:57.613Z,10.40
2017-10-23T05:43:57.609Z,10.44
2017-10-23T05:44:57.607Z,10.41
2017-10-23T05:45:57.608Z,10.38
2017-10-23T05:46:57.602Z,10.40
2017-10-23T05:47:57.599Z,10.54
2017-10-23T05:48:57.596Z,10.53
2017-10-23T05:49:57.595Z,10.49
2017-10-23T05:50:57.592Z,10.51
2017-10-23T05:51:57.590Z,10.51
2017-10-23T05:52:57.585Z,10.54
2017-10-23T05:53:57.584Z,10.57
2017-10-23T05:54:57.579Z,10.54
2017-10-23T05:55:57.578Z,10.46
2017-10-23T05:56:57.574Z,10.56
2017-10-23T05:57:57.571Z,10.56
2017-10-23T05:58:57.571Z,10.49
2017-10-23T05:59:57.567Z,10.44
2017-10-23T06:00:57.564Z,10.44
2017-10-23T06:01:57.560Z,10.56
2017-10-23T06:02:57.560Z,10.53
2017-10-23T06:03:57.556Z,10.51
2017-10-23T06:04:57.552Z,10.54
2017-10-23T06:05:57.550Z,10.48
2017-10-23T06:06:57.547Z,10.48
2017-10-23T06:07:57.545Z,10.46
2017-10-23T06:08:57.542Z,10.44
2017-10-23T06:09:57.539Z,10.53
2017-10-23T06:10:57.537Z,10.56
2017-10-23T06:11:57.538Z,10.51
2017-10-23T06:12:57.531Z,10.51
2017-10-23T06:13:57.527Z,10.53
2017-10-23T06:14:57.527Z,10.48
2017-10-23T06:15:57.524Z,10.53
2017-10-23T06:16:57.520Z,10.48
2017-10-23T06:17:57.518Z,10.41
2017-10-23T06:18:57.516Z,10.44
2017-10-23T06:19:57.513Z,10.41
2017-10-23T06:20:57.517Z,10.49
2017-10-23T06:21:57.505Z,10.41
2017-10-23T06:22:57.503Z,10.51
2017-10-23T06:23:57.504Z,10.56
2017-10-23T06:24:57.498Z,10.48
2017-10-23T06:25:57.497Z,10.38
2017-10-23T06:26:57.493Z,10.49
2017-10-23T06:27:57.491Z,10.60
2017-10-23T06:28:57.487Z,10.57
2017-10-23T06:29:57.486Z,10.54
2017-10-23T06:30:57.482Z,10.53
2017-10-23T06:31:57.481Z,10.53
2017-10-23T06:32:57.478Z,10.46
2017-10-23T06:33:57.475Z,10.41
2017-10-23T06:34:57.471Z,10.44
2017-10-23T06:35:57.469Z,10.48
2017-10-23T06:36:57.465Z,10.44
2017-10-23T06:37:57.464Z,10.49
2017-10-23T06:38:57.460Z,10.46
2017-10-23T06:39:57.458Z,10.40
2017-10-23T06:40:57.457Z,10.48
2017-10-23T06:41:57.453Z,10.44
2017-10-23T06:42:57.449Z,10.38
2017-10-23T06:43:57.446Z,10.49
2017-10-23T06:44:57.443Z,10.46
2017-10-23T06:45:57.444Z,10.56
2017-10-23T06:46:57.440Z,10.56
2017-10-23T06:47:57.437Z,10.56
2017-10-23T06:48:57.433Z,10.54
2017-10-23T06:49:57.431Z,10.49
2017-10-23T06:50:57.429Z,10.56
2017-10-23T06:51:57.431Z,10.51
2017-10-23T06:52:57.423Z,10.54
2017-10-23T06:53:57.420Z,10.54
2017-10-23T06:54:57.418Z,10.60
2017-10-23T06:55:57.415Z,10.57
2017-10-23T06:56:57.410Z,10.60
2017-10-23T06:57:57.410Z,10.54
2017-10-23T06:58:57.407Z,10.54
2017-10-23T06:59:57.403Z,10.60
2017-10-23T07:00:57.400Z,10.54
2017-10-23T07:01:57.398Z,10.60
2017-10-23T07:02:57.396Z,10.67
2017-10-23T07:03:57.393Z,10.54
2017-10-23T07:04:57.389Z,10.63
2017-10-23T07:05:57.387Z,10.67
2017-10-23T07:06:57.386Z,10.63
2017-10-23T07:07:57.382Z,10.67
2017-10-23T07:08:57.378Z,10.68
2017-10-23T07:09:57.376Z,10.59
2017-10-23T07:10:57.374Z,10.67
2017-10-23T07:11:57.372Z,10.67
2017-10-23T07:12:57.368Z,10.63
2017-10-23T07:13:57.370Z,10.64
2017-10-23T07:14:57.364Z,10.74
2017-10-23T07:15:57.361Z,10.67
2017-10-23T07:16:57.363Z,10.67
2017-10-23T07:17:57.355Z,10.72
2017-10-23T07:18:57.355Z,10.68
2017-10-23T07:19:57.352Z,10.61
2017-10-23T07:20:57.348Z,10.74
2017-10-23T07:21:57.348Z,10.71
2017-10-23T07:22:57.342Z,10.74
2017-10-23T07:23:57.339Z,10.69
2017-10-23T07:24:57.337Z,10.67
2017-10-23T07:25:57.333Z,10.72
2017-10-23T07:26:57.332Z,10.75
2017-10-23T07:27:57.329Z,10.74
2017-10-23T07:28:57.328Z,10.78
2017-10-23T07:29:57.325Z,10.81
2017-10-23T07:30:57.322Z,10.72
2017-10-23T07:31:57.319Z,10.81
2017-10-23T07:32:57.316Z,10.79
2017-10-23T07:33:57.313Z,10.89
2017-10-23T07:34:57.314Z,10.82
2017-10-23T07:35:57.309Z,10.84
2017-10-23T07:36:57.307Z,10.86
2017-10-23T07:37:57.304Z,10.86
2017-10-23T07:38:57.302Z,10.96
2017-10-23T07:39:57.300Z,10.94
2017-10-23T07:40:57.297Z,10.79
2017-10-23T07:41:57.292Z,10.92
2017-10-23T07:42:57.291Z,10.89
2017-10-23T07:43:57.289Z,10.92
2017-10-23T07:44:57.286Z,10.96
2017-10-23T07:45:57.283Z,10.90
2017-10-23T07:46:57.282Z,10.89
2017-10-23T07:47:57.278Z,10.97
2017-10-23T07:48:57.275Z,11.05
2017-10-23T07:49:57.272Z,11.07
2017-10-23T07:50:57.271Z,11.00
2017-10-23T07:51:57.272Z,10.94
2017-10-23T07:52:57.265Z,10.99
2017-10-23T07:53:57.264Z,11.00
2017-10-23T07:54:57.262Z,11.04
2017-10-23T07:55:57.259Z,11.10
2017-10-23T07:56:57.257Z,11.14
2017-10-23T07:57:57.255Z,11.17
2017-10-23T07:58:57.251Z,11.23
2017-10-23T07:59:57.251Z,11.25
2017-10-23T08:00:57.248Z,11.29
2017-10-23T08:01:57.244Z,11.29
2017-10-23T08:02:57.242Z,11.32
2017-10-23T08:03:57.240Z,11.33
2017-10-23T08:04:57.239Z,11.37
2017-10-23T08:05:57.236Z,11.36
2017-10-23T08:06:57.234Z,11.43
2017-10-23T08:07:57.232Z,11.50
2017-10-23T08:08:57.229Z,11.51
2017-10-23T08:09:57.228Z,11.36
2017-10-23T08:10:57.224Z,11.45
2017-10-23T08:11:57.224Z,11.47
2017-10-23T08:12:57.227Z,11.62
2017-10-23T08:13:57.218Z,11.65
2017-10-23T08:14:57.219Z,11.69
2017-10-23T08:15:57.215Z,11.68
2017-10-23T08:16:57.214Z,11.80
2017-10-23T08:17:57.212Z,11.66
2017-10-23T08:18:57.209Z,11.68
2017-10-23T08:19:57.208Z,11.77
2017-10-23T08:20:57.206Z,11.78
2017-10-23T08:21:57.207Z,11.80
2017-10-23T08:22:57.202Z,11.88
2017-10-23T08:23:57.200Z,11.83
2017-10-23T08:24:57.199Z,11.90
2017-10-23T08:25:57.198Z,11.84
2017-10-23T08:26:57.203Z,11.77
2017-10-23T08:27:57.195Z,11.83
2017-10-23T08:28:57.192Z,11.87
2017-10-23T08:29:57.191Z,11.83
2017-10-23T08:30:57.189Z,11.90
2017-10-23T08:31:57.189Z,11.94
2017-10-23T08:32:57.186Z,11.83
2017-10-23T08:33:57.184Z,12.00
2017-10-23T08:34:57.183Z,12.02
2017-10-23T08:35:57.183Z,12.12
2017-10-23T08:36:57.179Z,12.18
2017-10-23T08:37:57.179Z,12.02
2017-10-23T08:38:57.178Z,12.06
2017-10-23T08:39:57.179Z,12.12
2017-10-23T08:40:57.173Z,12.13
2017-10-23T08:41:57.172Z,12.07
2017-10-23T08:42:57.172Z,12.09
2017-10-23T08:43:57.172Z,12.13
2017-10-23T08:44:57.170Z,12.12
2017-10-23T08:45:57.167Z,12.13
2017-10-23T08:46:57.167Z,12.13
2017-10-23T08:47:57.166Z,12.17
2017-10-23T08:48:57.163Z,12.13
2017-10-23T08:49:57.162Z,12.12
2017-10-23T08:50:57.162Z,12.13
2017-10-23T08:51:57.161Z,12.15
2017-10-23T08:52:57.159Z,12.12
2017-10-23T08:53:57.158Z,12.15
2017-10-23T08:54:57.157Z,12.17
2017-10-23T08:55:57.157Z,12.13
2017-10-23T08:56:57.158Z,12.13
2017-10-23T08:57:57.155Z,12.07
2017-10-23T08:58:57.152Z,12.00
2017-10-23T08:59:57.152Z,11.94
2017-10-23T09:00:57.149Z,11.83
2017-10-23T09:01:57.148Z,11.87
2017-10-23T09:02:57.148Z,12.00
2017-10-23T09:03:57.147Z,11.99
2017-10-23T09:04:57.145Z,12.07
2017-10-23T09:05:57.151Z,12.13
2017-10-23T09:06:57.142Z,12.12
2017-10-23T09:07:57.142Z,12.13
2017-10-23T09:08:57.144Z,12.28
2017-10-23T09:09:57.141Z,12.27
2017-10-23T09:10:57.137Z,12.20
2017-10-23T09:11:57.137Z,12.20
2017-10-23T09:12:57.136Z,12.12
2017-10-23T09:13:57.134Z,12.07
2017-10-23T09:14:57.132Z,12.17
2017-10-23T09:15:57.134Z,12.09
2017-10-23T09:16:57.129Z,12.15
2017-10-23T09:17:57.129Z,12.15
2017-10-23T09:18:57.129Z,12.13
2017-10-23T09:19:57.127Z,12.18
2017-10-23T09:20:57.125Z,12.28
2017-10-23T09:21:57.126Z,12.21
2017-10-23T09:22:57.123Z,12.25
2017-10-23T09:23:57.122Z,12.24
2017-10-23T09:24:57.120Z,12.24
2017-10-23T09:25:57.120Z,12.31
2017-10-23T09:26:57.119Z,12.32
2017-10-23T09:27:57.116Z,12.36
2017-10-23T09:28:57.116Z,12.35
2017-10-23T09:29:57.119Z,12.21
2017-10-23T09:30:57.114Z,12.27
2017-10-23T09:31:57.113Z,12.25
2017-10-23T09:32:57.110Z,12.12
2017-10-23T09:33:57.110Z,12.13
2017-10-23T09:34:57.108Z,12.12
2017-10-23T09:35:57.108Z,12.20
2017-10-23T09:36:57.106Z,12.18
2017-10-23T09:37:57.106Z,12.12
2017-10-23T09:38:57.104Z,12.10
2017-10-23T09:39:57.103Z,12.15
2017-10-23T09:40:57.100Z,12.15
2017-10-23T09:41:57.100Z,12.25
2017-10-23T09:42:57.100Z,12.27
2017-10-23T09:43:57.098Z,12.37
2017-10-23T09:44:57.096Z,12.32
2017-10-23T09:45:57.095Z,12.40
2017-10-23T09:46:57.095Z,12.39
2017-10-23T09:47:57.094Z,12.45
2017-10-23T09:48:57.090Z,12.55
2017-10-23T09:49:57.092Z,12.55
2017-10-23T09:50:57.099Z,12.61
2017-10-23T09:51:57.089Z,12.67
2017-10-23T09:52:57.088Z,12.61
2017-10-23T09:53:57.086Z,12.61
2017-10-23T09:54:57.085Z,12.58
2017-10-23T09:55:57.085Z,12.60
2017-10-23T09:56:57.083Z,12.54
2017-10-23T09:57:57.082Z,12.54
2017-10-23T09:58:57.086Z,12.47
2017-10-23T09:59:57.081Z,12.39
2017-10-23T10:00:57.077Z,12.57
2017-10-23T10:01:57.083Z,12.57
2017-10-23T10:02:57.077Z,12.54
2017-10-23T10:03:57.077Z,12.55
2017-10-23T10:04:57.075Z,12.58
2017-10-23T10:05:57.073Z,12.55
2017-10-23T10:06:57.073Z,12.50
2017-10-23T10:07:57.073Z,12.43
2017-10-23T10:08:57.070Z,12.42
2017-10-23T10:09:57.069Z,12.39
2017-10-23T10:10:57.069Z,12.43
2017-10-23T10:11:57.068Z,12.61
2017-10-23T10:12:57.065Z,12.58
2017-10-23T10:13:57.066Z,12.55
2017-10-23T10:14:57.065Z,12.53
2017-10-23T10:15:57.064Z,12.58
2017-10-23T10:16:57.062Z,12.62
2017-10-23T10:17:57.060Z,12.62
2017-10-23T10:18:57.060Z,12.61
2017-10-23T10:19:57.063Z,12.67
2017-10-23T10:20:57.057Z,12.61
2017-10-23T10:21:57.056Z,12.68
2017-10-23T10:22:57.057Z,12.75
2017-10-23T10:23:57.055Z,12.83
2017-10-23T10:24:57.058Z,12.78
2017-10-23T10:25:57.053Z,12.83
2017-10-23T10:26:57.051Z,12.94
2017-10-23T10:27:57.051Z,12.97
2017-10-23T10:28:57.051Z,12.98
2017-10-23T10:29:57.050Z,12.95
2017-10-23T10:30:57.050Z,13.15
2017-10-23T10:31:57.049Z,13.15
2017-10-23T10:32:57.048Z,13.16
2017-10-23T10:33:57.052Z,13.30
2017-10-23T10:34:57.047Z,13.37
2017-10-23T10:35:57.045Z,13.49
2017-10-23T10:36:57.046Z,13.46
2017-10-23T10:37:57.044Z,13.50
2017-10-23T10:38:57.045Z,13.67
2017-10-23T10:39:57.044Z,13.63
2017-10-23T10:40:57.047Z,13.70
2017-10-23T10:41:57.049Z,13.68
2017-10-23T10:42:57.045Z,13.68
2017-10-23T10:43:57.042Z,13.96
2017-10-23T10:44:57.042Z,13.95
2017-10-23T10:45:57.042Z,14.20
2017-10-23T10:46:57.043Z,14.12
2017-10-23T10:47:57.043Z,14.26
2017-10-23T10:48:57.043Z,14.48
2017-10-23T10:49:57.043Z,14.37
2017-10-23T10:50:57.044Z,14.25
2017-10-23T10:51:57.045Z,14.48
2017-10-23T10:52:57.048Z,14.43
2017-10-23T10:53:57.044Z,14.55
2017-10-23T10:54:57.045Z,14.66
2017-10-23T10:55:57.047Z,14.77
2017-10-23T10:56:57.046Z,14.85
2017-10-23T10:57:57.047Z,14.85
2017-10-23T10:58:57.050Z,14.59
2017-10-23T10:59:57.049Z,14.55
2017-10-23T11:00:57.049Z,14.36
2017-10-23T11:01:57.052Z,14.08
2017-10-23T11:02:57.053Z,13.96
2017-10-23T11:03:57.054Z,14.22
2017-10-23T11:04:57.054Z,14.10
2017-10-23T11:05:57.060Z,14.00
2017-10-23T11:06:57.057Z,14.04
2017-10-23T11:07:57.068Z,14.14
2017-10-23T11:08:57.058Z,14.14
2017-10-23T11:09:57.060Z,13.95
2017-10-23T11:10:57.060Z,14.10
2017-10-23T11:11:57.062Z,13.96
2017-10-23T11:12:57.062Z,13.89
2017-10-23T11:13:57.074Z,13.86
2017-10-23T11:14:57.065Z,13.92
2017-10-23T11:15:57.066Z,13.81
2017-10-23T11:16:57.065Z,13.62
2017-10-23T11:17:57.067Z,13.74
2017-10-23T11:18:57.069Z,13.68
2017-10-23T11:19:57.073Z,13.71
2017-10-23T11:20:57.070Z,13.68
2017-10-23T11:21:57.071Z,13.79
2017-10-23T11:22:57.070Z,13.86
2017-10-23T11:23:57.073Z,13.97
2017-10-23T11:24:57.072Z,14.03
2017-10-23T11:25:57.074Z,14.23
2017-10-23T11:26:57.074Z,14.17
2017-10-23T11:27:57.074Z,14.23
2017-10-23T11:28:57.075Z,14.17
2017-10-23T11:29:57.076Z,14.26
2017-10-23T11:30:57.078Z,14.18
2017-10-23T11:31:57.079Z,14.14
2017-10-23T11:32:57.079Z,14.15
2017-10-23T11:33:57.080Z,14.00
2017-10-23T11:34:57.081Z,13.97
2017-10-23T11:35:57.082Z,13.75
2017-10-23T11:36:57.085Z,13.89
2017-10-23T11:37:57.082Z,13.75
2017-10-23T11:38:57.085Z,13.81
2017-10-23T11:39:57.085Z,13.77
2017-10-23T11:40:57.088Z,13.87
2017-10-23T11:41:57.087Z,13.90
2017-10-23T11:42:57.087Z,14.00
2017-10-23T11:43:57.088Z,13.89
2017-10-23T11:44:57.088Z,13.95
2017-10-23T11:45:57.094Z,13.86
2017-10-23T11:46:57.092Z,13.96
2017-10-23T11:47:57.089Z,13.89
2017-10-23T11:48:57.095Z,13.99
2017-10-23T11:49:57.090Z,13.96
2017-10-23T11:50:57.092Z,13.95
2017-10-23T11:51:57.092Z,13.93
2017-10-23T11:52:57.097Z,13.87
2017-10-23T11:53:57.091Z,13.85
2017-10-23T11:54:57.093Z,13.89
2017-10-23T11:55:57.096Z,13.97
2017-10-23T11:56:57.093Z,13.97
2017-10-23T11:57:57.093Z,13.99
2017-10-23T11:58:57.096Z,14.07
2017-10-23T11:59:57.097Z,13.99
2017-10-23T12:00:57.096Z,13.97
2017-10-23T12:01:57.095Z,14.03
2017-10-23T12:02:57.102Z,14.14
2017-10-23T12:03:57.097Z,14.12
2017-10-23T12:04:57.097Z,14.04
2017-10-23T12:05:57.099Z,13.96
2017-10-23T12:06:57.098Z,14.00
2017-10-23T12:07:57.101Z,13.87
2017-10-23T12:08:57.099Z,13.86
2017-10-23T12:09:57.099Z,13.89
2017-10-23T12:10:57.101Z,13.96
2017-10-23T12:11:57.100Z,13.85
2017-10-23T12:12:57.101Z,13.93
2017-10-23T12:13:57.101Z,13.99
2017-10-23T12:14:57.104Z,13.97
2017-10-23T12:15:57.103Z,13.90
2017-10-23T12:16:57.105Z,13.89
2017-10-23T12:17:57.104Z,13.86
2017-10-23T12:18:57.106Z,13.99
2017-10-23T12:19:57.106Z,13.99
2017-10-23T12:20:57.103Z,14.14
2017-10-23T12:21:57.106Z,14.20
2017-10-23T12:22:57.106Z,14.32
2017-10-23T12:23:57.105Z,14.32
2017-10-23T12:24:57.106Z,14.29
2017-10-23T12:25:57.106Z,14.44
2017-10-23T12:26:57.109Z,14.45
2017-10-23T12:27:57.107Z,14.44
2017-10-23T12:28:57.107Z,14.36
2017-10-23T12:29:57.108Z,14.53
2017-10-23T12:30:57.109Z,14.59
2017-10-23T12:31:57.111Z,14.33
2017-10-23T12:32:57.109Z,14.30
2017-10-23T12:33:57.111Z,14.29
2017-10-23T12:34:57.110Z,14.20
2017-10-23T12:35:57.112Z,14.28
2017-10-23T12:36:57.112Z,14.35
2017-10-23T12:37:57.114Z,14.37
2017-10-23T12:38:57.115Z,14.33
2017-10-23T12:39:57.115Z,14.25
2017-10-23T12:40:57.115Z,14.17
2017-10-23T12:41:57.115Z,14.25
2017-10-23T12:42:57.115Z,14.18
2017-10-23T12:43:57.116Z,14.18
2017-10-23T12:44:57.117Z,14.35
2017-10-23T12:45:57.118Z,14.43
2017-10-23T12:46:57.119Z,14.35
2017-10-23T12:47:57.121Z,14.30
2017-10-23T12:48:57.119Z,14.28
2017-10-23T12:49:57.121Z,14.32
2017-10-23T12:50:57.125Z,14.30
2017-10-23T12:51:57.124Z,14.35
2017-10-23T12:52:57.124Z,14.37
2017-10-23T12:53:57.124Z,14.17
2017-10-23T12:54:57.125Z,14.30
2017-10-23T12:55:57.125Z,14.25